KLDM

Details ICAO KLDM
Name MASON CO
Region United States
Timezone America/Detroit (UTC-5.0)
Plans Departing 2
Arriving 1
Stats Elevation 645 ft / 197 m (AMSL)
Location 43.962748° -86.408653°
Runways 2
Magnetic Variation 5.279° W
Sunrise 2017-12-17 13:16:14 UTC / 2017-12-17 08:16:14 Local
Sunset 2017-12-17 22:10:14 UTC / 2017-12-17 17:10:14 Local
Advertisement - Login to hide

Runways

ID Width Length Bearing (true) Bearing (mag) Surface Threshold Offset Overrun Length
07 75 ft / 23 m 4,990 ft / 1,521 m 70.94° 76.22° Asphalt 0 ft / 0 m 250 ft / 76 m
18 75 ft / 23 m 3,505 ft / 1,068 m 181.65° 186.93° Asphalt 0 ft / 0 m 0 ft / 0 m
25 75 ft / 23 m 4,990 ft / 1,521 m 250.95° 256.23° Asphalt 0 ft / 0 m 0 ft / 0 m
36 75 ft / 23 m 3,505 ft / 1,068 m 1.65° 6.93° Asphalt 0 ft / 0 m 800 ft / 244 m

Map

Weather


0- 5 10 15 20 25 30 35+ Temperature / ° C

Clouds and Precipitation
Forecast for 2017-12-17 12:00 UTC. Updated an hour ago

Ground ~20,000 ft ~40,000 ft Winds

METAR

KLDM 171015Z AUTO 11005KT 10SM OVC024 M04/M07 A3016 RMK AO2 T10451067

TAF

Not found

Frequencies

Recorded 119.92 MHz AWOS 3
Unicom 123.00 MHz CTAF/UNICOM
Warning: Do not use this data for real-world aviation or navigation. No guarantee of current accuracy is given.